Time;durP1;ratioP1;P1;durP2;ratioP2;P2;SDS_P1;SDS_P2;PMS_P1;PMS_P2;Temp;Humidity;BMP_temperature;BMP_pressure;BME280_temperature;BME280_humidity;BME280_pressure;Samples;Min_cycle;Max_cycle;Signal;HPM_P1;HPM_P2
2022/10/17 00:01:17;;;;;;;12.15;5.95;;;12.40;99.90;;;;;;6219913;23;20067;-84
2022/10/17 00:04:01;;;;;;;9.85;5.65;;;14.00;99.90;;;;;;6246250;23;20286;-84
2022/10/17 00:06:27;;;;;;;14.18;5.97;;;14.00;99.90;;;;;;6221423;23;20020;-84
2022/10/17 00:09:02;;;;;;;13.63;6.32;;;13.70;99.90;;;;;;6223820;23;20023;-84
2022/10/17 00:11:27;;;;;;;13.70;6.15;;;12.70;99.90;;;;;;6245255;23;20020;-84
2022/10/17 00:13:54;;;;;;;12.07;5.60;;;12.70;99.90;;;;;;6246732;23;20022;-84
2022/10/17 00:16:29;;;;;;;12.18;6.15;;;12.70;99.90;;;;;;6219496;23;20016;-83
2022/10/17 00:18:58;;;;;;;10.95;5.95;;;12.70;99.90;;;;;;6219074;23;20058;-84
2022/10/17 00:21:24;;;;;;;10.18;5.70;;;13.50;99.90;;;;;;6220006;23;20459;-84
2022/10/17 00:23:50;;;;;;;12.05;5.90;;;12.70;99.90;;;;;;6218980;23;20102;-84
2022/10/17 00:26:16;;;;;;;14.43;6.50;;;12.70;99.90;;;;;;6219550;23;20524;-84
2022/10/17 00:28:45;;;;;;;11.88;5.90;;;12.70;99.90;;;;;;6219926;23;20024;-84
2022/10/17 00:31:11;;;;;;;11.63;5.85;;;12.70;99.90;;;;;;6245605;23;20012;-84
2022/10/17 00:33:38;;;;;;;11.07;6.00;;;12.70;99.90;;;;;;6220084;23;20388;-84
2022/10/17 00:36:13;;;;;;;14.48;6.72;;;12.80;99.90;;;;;;6219837;23;20078;-84
2022/10/17 00:38:40;;;;;;;13.45;6.05;;;12.80;99.90;;;;;;6245704;23;20016;-84
2022/10/17 00:41:12;;;;;;;11.90;6.22;;;12.80;99.90;;;;;;6219363;23;20073;-84
2022/10/17 00:44:29;;;;;;;14.60;6.38;;;12.80;99.90;;;;;;6222716;23;20326;-84
2022/10/17 00:47:02;;;;;;;12.73;6.18;;;12.80;99.90;;;;;;6135560;23;20464;-84
2022/10/17 00:49:31;;;;;;;12.57;6.45;;;12.80;99.90;;;;;;6219378;23;20336;-84
2022/10/17 00:52:04;;;;;;;10.90;6.40;;;12.80;99.90;;;;;;6245601;23;20019;-84
2022/10/17 00:54:53;;;;;;;11.38;6.35;;;12.90;99.90;;;;;;6219155;23;20518;-84
2022/10/17 00:57:19;;;;;;;11.20;6.45;;;13.40;99.90;;;;;;6219308;23;20016;-84
2022/10/17 00:59:50;;;;;;;12.88;6.63;;;12.90;99.90;;;;;;6218561;23;20428;-83
2022/10/17 01:02:18;;;;;;;15.27;6.38;;;12.90;99.90;;;;;;6219284;23;20340;-84
2022/10/17 01:04:46;;;;;;;12.32;6.30;;;12.90;99.90;;;;;;6219430;23;20020;-83
2022/10/17 01:07:12;;;;;;;10.40;6.20;;;12.90;99.90;;;;;;6244162;23;20332;-83
2022/10/17 01:09:43;;;;;;;13.93;6.22;;;12.90;99.90;;;;;;6246739;23;20020;-84
2022/10/17 01:12:32;;;;;;;13.32;6.40;;;12.90;99.90;;;;;;6219320;23;20154;-84
2022/10/17 01:15:12;;;;;;;16.50;6.70;;;12.90;99.90;;;;;;6198985;23;20012;-84
2022/10/17 01:17:54;;;;;;;13.00;6.60;;;12.90;99.90;;;;;;6219813;23;20019;-84
2022/10/17 01:20:36;;;;;;;12.90;7.03;;;12.80;99.90;;;;;;6221410;23;20020;-84
2022/10/17 01:23:39;;;;;;;14.68;6.93;;;12.70;99.90;;;;;;6219655;23;20016;-84
2022/10/17 01:26:32;;;;;;;13.60;6.38;;;12.70;99.90;;;;;;6219389;23;20020;-84
2022/10/17 01:29:03;;;;;;;13.65;7.07;;;12.60;99.90;;;;;;6218571;23;20095;-84
2022/10/17 01:31:45;;;;;;;11.82;6.82;;;12.50;99.90;;;;;;6218813;23;20387;-81
2022/10/17 01:34:17;;;;;;;13.85;7.38;;;12.40;99.90;;;;;;6218047;23;20024;-83
2022/10/17 01:37:20;;;;;;;13.82;7.32;;;12.40;99.90;;;;;;6219176;23;20715;-83
2022/10/17 01:40:10;;;;;;;12.15;6.90;;;12.30;99.90;;;;;;6221812;23;20012;-84
2022/10/17 01:42:47;;;;;;;15.73;7.82;;;13.30;99.90;;;;;;6245156;23;20015;-83
2022/10/17 01:45:39;;;;;;;13.68;7.88;;;12.20;99.90;;;;;;6246243;23;20432;-84
2022/10/17 01:48:11;;;;;;;14.00;7.68;;;12.50;99.90;;;;;;6203178;23;20012;-84
2022/10/17 01:50:43;;;;;;;12.93;7.85;;;12.10;99.90;;;;;;6218979;23;20451;-84
2022/10/17 01:53:23;;;;;;;16.00;7.50;;;12.10;99.90;;;;;;6246285;23;20087;-84
2022/10/17 01:55:50;;;;;;;14.20;7.85;;;12.70;99.90;;;;;;6221432;23;20495;-84
2022/10/17 01:58:25;;;;;;;16.23;8.75;;;12.00;99.90;;;;;;6219264;23;20016;-83
2022/10/17 02:00:53;;;;;;;15.55;8.93;;;12.00;99.90;;;;;;6246479;23;20020;-84
2022/10/17 02:03:20;;;;;;;14.73;8.57;;;12.00;99.90;;;;;;6243464;23;20020;-83
2022/10/17 02:05:49;;;;;;;16.08;8.85;;;12.00;99.90;;;;;;6218363;23;20020;-83
2022/10/17 02:08:26;;;;;;;16.13;8.50;;;12.00;99.90;;;;;;6218548;23;20016;-84
2022/10/17 02:11:09;;;;;;;15.35;8.93;;;12.00;99.90;;;;;;6245388;23;20019;-84
2022/10/17 02:13:38;;;;;;;16.35;8.55;;;12.00;99.90;;;;;;6218905;23;20086;-84
2022/10/17 02:16:22;;;;;;;14.32;8.73;;;12.00;99.90;;;;;;6219168;23;20016;-84
2022/10/17 02:19:14;;;;;;;17.35;8.75;;;12.60;99.90;;;;;;6246030;23;20082;-84
2022/10/17 02:22:15;;;;;;;16.33;9.25;;;12.00;99.90;;;;;;6218154;23;20024;-84
2022/10/17 02:24:56;;;;;;;13.93;9.07;;;11.90;99.90;;;;;;6218083;23;20008;-84
2022/10/17 02:27:37;;;;;;;16.88;9.55;;;11.90;99.90;;;;;;6244989;23;20016;-84
2022/10/17 02:30:28;;;;;;;19.17;9.63;;;11.90;99.90;;;;;;6218954;23;20095;-83
2022/10/17 02:32:59;;;;;;;15.75;8.95;;;11.90;99.90;;;;;;6253825;23;20398;-84
2022/10/17 02:35:29;;;;;;;18.05;9.27;;;11.90;99.90;;;;;;6218382;23;20318;-84
2022/10/17 02:37:56;;;;;;;15.95;9.82;;;13.10;99.90;;;;;;6244680;23;20375;-83
2022/10/17 02:42:59;;;;;;;16.02;9.63;;;11.90;99.90;;;;;;6214827;22;20314;-84
2022/10/17 02:45:28;;;;;;;16.20;9.55;;;11.80;99.90;;;;;;6244255;23;20026;-83
2022/10/17 02:48:08;;;;;;;16.48;10.00;;;11.80;99.90;;;;;;6218570;23;20091;-83
2022/10/17 02:50:39;;;;;;;18.90;10.50;;;11.90;99.90;;;;;;6218250;23;20212;-83
2022/10/17 02:53:16;;;;;;;16.30;10.07;;;12.50;99.90;;;;;;6217698;23;20424;-83
2022/10/17 02:55:52;;;;;;;17.02;10.65;;;11.90;99.90;;;;;;6218073;23;20020;-84
2022/10/17 02:58:27;;;;;;;17.67;10.45;;;11.90;99.90;;;;;;6218045;23;20039;-84
2022/10/17 03:00:53;;;;;;;21.08;11.13;;;12.10;99.90;;;;;;6245485;23;20008;-84
2022/10/17 03:03:25;;;;;;;18.38;11.23;;;12.40;99.90;;;;;;6218218;23;20090;-83
2022/10/17 03:05:51;;;;;;;18.33;11.85;;;12.00;99.90;;;;;;6244685;23;20073;-83
2022/10/17 03:08:18;;;;;;;19.20;10.60;;;12.00;99.90;;;;;;6247665;23;20023;-84
2022/10/17 03:10:43;;;;;;;18.38;11.50;;;12.00;99.90;;;;;;6219392;23;20020;-83
2022/10/17 03:13:09;;;;;;;18.20;11.32;;;12.00;99.90;;;;;;6243670;23;20050;-84
2022/10/17 03:15:35;;;;;;;18.60;11.13;;;12.20;99.90;;;;;;6244728;23;20019;-84
2022/10/17 03:18:01;;;;;;;17.20;11.00;;;12.00;99.90;;;;;;6245613;23;20012;-84
2022/10/17 03:20:27;;;;;;;18.42;11.48;;;12.00;99.90;;;;;;6216883;23;20399;-84
2022/10/17 03:22:52;;;;;;;20.35;11.50;;;12.10;99.90;;;;;;6218423;23;20012;-84
2022/10/17 03:25:18;;;;;;;18.42;11.60;;;12.00;99.90;;;;;;6217866;23;20382;-82
2022/10/17 03:27:43;;;;;;;19.05;11.00;;;12.10;99.90;;;;;;6217474;23;20026;-83
2022/10/17 03:30:09;;;;;;;18.67;11.85;;;12.10;99.90;;;;;;6245274;23;20332;-84
2022/10/17 03:32:35;;;;;;;21.90;12.80;;;12.00;99.90;;;;;;6218158;23;20130;-84
2022/10/17 03:35:01;;;;;;;23.60;12.73;;;12.00;99.90;;;;;;6218004;23;20067;-84
2022/10/17 03:37:27;;;;;;;18.85;11.55;;;12.00;99.90;;;;;;6218799;23;20056;-84
2022/10/17 03:39:53;;;;;;;21.95;12.60;;;12.10;99.90;;;;;;6246975;23;20027;-84
2022/10/17 03:42:21;;;;;;;20.92;13.30;;;12.10;99.90;;;;;;6245483;23;20020;-84
2022/10/17 03:44:47;;;;;;;20.27;12.52;;;12.00;99.90;;;;;;6220215;23;20020;-84
2022/10/17 03:47:13;;;;;;;21.77;13.30;;;12.10;99.90;;;;;;6245083;23;20016;-84
2022/10/17 03:49:38;;;;;;;20.33;12.82;;;12.10;99.90;;;;;;6217436;23;20034;-84
2022/10/17 03:52:04;;;;;;;21.40;12.88;;;12.10;99.90;;;;;;6245396;23;20462;-84
2022/10/17 03:54:29;;;;;;;20.38;12.75;;;12.20;99.90;;;;;;6244783;23;20008;-84
2022/10/17 03:56:55;;;;;;;21.45;12.63;;;12.70;99.90;;;;;;6217542;23;20340;-84
2022/10/17 03:59:21;;;;;;;19.55;12.48;;;12.20;99.90;;;;;;6217630;23;20024;-84
2022/10/17 04:01:46;;;;;;;21.80;13.07;;;12.20;99.90;;;;;;6243803;23;20016;-84
2022/10/17 04:04:30;;;;;;;22.80;13.30;;;12.20;99.90;;;;;;6243548;23;20035;-84
2022/10/17 04:06:55;;;;;;;21.05;12.70;;;12.20;99.90;;;;;;6217260;23;20016;-84
2022/10/17 04:09:21;;;;;;;22.65;14.00;;;12.30;99.90;;;;;;6243467;23;20023;-84
2022/10/17 04:11:50;;;;;;;24.08;14.23;;;12.20;99.90;;;;;;6196576;23;20024;-85
2022/10/17 04:14:15;;;;;;;24.55;14.52;;;12.00;99.90;;;;;;6217193;23;20083;-84
2022/10/17 04:16:41;;;;;;;25.90;15.05;;;13.20;99.90;;;;;;6217149;23;20449;-84
2022/10/17 04:19:11;;;;;;;24.15;15.27;;;12.30;99.90;;;;;;6219568;23;20142;-83
2022/10/17 04:21:40;;;;;;;23.85;15.25;;;13.50;99.90;;;;;;6218461;23;20021;-84
2022/10/17 04:24:08;;;;;;;25.75;15.93;;;13.70;99.90;;;;;;6216348;23;20463;-84
2022/10/17 04:26:33;;;;;;;27.60;16.08;;;12.40;99.90;;;;;;6217992;23;20070;-84
2022/10/17 04:28:59;;;;;;;25.38;15.88;;;12.50;99.90;;;;;;6244712;23;20020;-83
2022/10/17 04:31:24;;;;;;;25.52;15.70;;;12.40;99.90;;;;;;6216610;23;20106;-84
2022/10/17 04:33:50;;;;;;;25.25;15.98;;;12.90;99.90;;;;;;6217664;23;20016;-84
2022/10/17 04:36:18;;;;;;;27.90;16.55;;;12.40;99.90;;;;;;6217053;23;20012;-83
2022/10/17 04:38:44;;;;;;;26.63;16.20;;;13.50;99.90;;;;;;6244103;23;20101;-84
2022/10/17 04:41:15;;;;;;;32.55;17.42;;;12.40;99.90;;;;;;6244270;23;20070;-84
2022/10/17 04:43:40;;;;;;;25.73;13.95;;;12.50;99.90;;;;;;6217990;23;20043;-84
2022/10/17 04:46:10;;;;;;;30.35;16.42;;;12.50;99.90;;;;;;6218997;23;20063;-85
2022/10/17 04:48:37;;;;;;;29.17;16.95;;;12.50;99.90;;;;;;6246835;23;20075;-84
2022/10/17 04:54:05;;;;;;;26.50;17.00;;;12.60;99.90;;;;;;6216621;23;20100;-84
2022/10/17 04:56:30;;;;;;;27.50;17.20;;;12.80;99.90;;;;;;6194552;23;20349;-84
2022/10/17 05:04:17;;;;;;;27.73;16.75;;;12.60;99.90;;;;;;6236435;22;20352;-83
2022/10/17 05:06:42;;;;;;;27.17;16.80;;;12.70;99.90;;;;;;6218687;23;20099;-84
2022/10/17 05:09:08;;;;;;;27.60;17.25;;;12.70;99.90;;;;;;6246557;23;20016;-83
2022/10/17 05:11:34;;;;;;;28.75;16.98;;;12.70;99.90;;;;;;6246356;23;20094;-83
2022/10/17 05:14:01;;;;;;;28.08;17.00;;;13.90;99.90;;;;;;6218229;23;20352;-83
2022/10/17 05:16:27;;;;;;;27.92;16.88;;;12.70;99.90;;;;;;6218832;23;20384;-83
2022/10/17 05:18:58;;;;;;;28.30;17.13;;;12.80;99.90;;;;;;6219393;23;20020;-84
2022/10/17 05:21:25;;;;;;;29.23;17.38;;;12.70;99.90;;;;;;6218025;23;20044;-83
2022/10/17 05:23:51;;;;;;;28.08;17.40;;;12.80;99.90;;;;;;6219379;23;20020;-83
2022/10/17 05:26:17;;;;;;;26.33;16.25;;;12.90;99.90;;;;;;6245256;23;20083;-83
2022/10/17 05:28:43;;;;;;;28.33;17.85;;;13.30;99.90;;;;;;6219554;23;20067;-84
2022/10/17 05:31:09;;;;;;;24.98;15.95;;;12.90;99.90;;;;;;6248815;23;20020;-83
2022/10/17 05:33:36;;;;;;;27.85;15.88;;;12.90;99.90;;;;;;6220374;23;20083;-84
2022/10/17 05:36:03;;;;;;;26.83;15.93;;;13.00;99.90;;;;;;6246582;23;20024;-84
2022/10/17 05:38:28;;;;;;;27.00;15.60;;;13.00;99.90;;;;;;6218860;23;20013;-83
2022/10/17 05:40:58;;;;;;;26.38;15.15;;;13.00;99.90;;;;;;6218479;23;20463;-84
2022/10/17 05:43:24;;;;;;;28.92;15.75;;;13.00;99.90;;;;;;6245842;23;20039;-83
2022/10/17 05:45:50;;;;;;;25.42;15.65;;;13.00;99.90;;;;;;6246162;23;20031;-83
2022/10/17 05:48:16;;;;;;;24.15;13.73;;;13.00;99.90;;;;;;6217787;23;20314;-83
2022/10/17 05:50:42;;;;;;;24.90;13.27;;;14.10;99.90;;;;;;6219020;23;20078;-83
2022/10/17 05:53:10;;;;;;;22.20;12.98;;;13.90;99.90;;;;;;6218661;23;20387;-84
2022/10/17 05:55:36;;;;;;;26.88;13.50;;;13.10;99.90;;;;;;6217355;23;20016;-82
2022/10/17 05:58:01;;;;;;;26.35;14.25;;;14.10;99.90;;;;;;6245763;23;20123;-82
2022/10/17 06:00:27;;;;;;;25.70;13.50;;;13.10;99.90;;;;;;6245650;23;20074;-81
2022/10/17 06:02:53;;;;;;;22.73;11.90;;;13.20;99.90;;;;;;6217809;23;20016;-81
2022/10/17 06:05:19;;;;;;;22.60;13.02;;;13.10;99.90;;;;;;6218769;23;20019;-82
2022/10/17 06:07:45;;;;;;;23.27;13.02;;;14.10;99.90;;;;;;6218968;23;20015;-82
2022/10/17 06:10:17;;;;;;;24.52;13.25;;;13.20;99.90;;;;;;6217972;23;20383;-82
2022/10/17 06:12:44;;;;;;;25.25;13.13;;;13.20;99.90;;;;;;6245658;23;20449;-82
2022/10/17 06:15:10;;;;;;;23.83;13.73;;;13.20;99.90;;;;;;6218256;23;20012;-82
2022/10/17 06:17:36;;;;;;;23.58;12.88;;;13.30;99.90;;;;;;6245352;23;20138;-81
2022/10/17 06:20:02;;;;;;;24.98;13.63;;;13.30;99.90;;;;;;6245524;23;20070;-82
2022/10/17 06:22:27;;;;;;;22.02;12.63;;;13.40;99.90;;;;;;6216664;23;20094;-82
2022/10/17 06:24:56;;;;;;;23.73;13.52;;;13.40;99.90;;;;;;6218511;23;20444;-82
2022/10/17 06:27:22;;;;;;;27.33;13.88;;;14.50;99.90;;;;;;6217949;23;20016;-82
2022/10/17 06:29:47;;;;;;;23.30;13.48;;;13.50;99.90;;;;;;6244865;23;20111;-82
2022/10/17 06:32:13;;;;;;;26.00;13.23;;;13.50;99.90;;;;;;6217992;23;20008;-82
2022/10/17 06:34:39;;;;;;;22.08;13.27;;;13.60;99.90;;;;;;6218782;23;20027;-82
2022/10/17 06:37:04;;;;;;;22.17;13.07;;;13.50;99.90;;;;;;6217823;23;20031;-82
2022/10/17 06:39:32;;;;;;;21.35;12.60;;;13.60;99.90;;;;;;6245658;23;20012;-82
2022/10/17 06:42:02;;;;;;;23.58;12.40;;;14.00;99.90;;;;;;6217844;23;20016;-82
2022/10/17 06:44:30;;;;;;;21.23;11.93;;;13.70;99.90;;;;;;6244325;23;20012;-82
2022/10/17 06:46:57;;;;;;;23.30;12.43;;;13.70;99.90;;;;;;6218821;23;20074;-82
2022/10/17 06:49:22;;;;;;;22.73;12.23;;;13.90;99.90;;;;;;6244960;23;20016;-81
2022/10/17 06:51:48;;;;;;;21.98;13.15;;;13.80;99.90;;;;;;6217684;23;20062;-81
2022/10/17 06:54:14;;;;;;;21.13;12.63;;;13.90;99.90;;;;;;6218242;23;20066;-81
2022/10/17 06:56:39;;;;;;;24.30;12.43;;;13.90;99.90;;;;;;6218611;23;20020;-81
2022/10/17 06:59:05;;;;;;;20.77;12.48;;;14.00;99.90;;;;;;6217930;23;20023;-81
2022/10/17 07:01:31;;;;;;;23.55;12.10;;;14.20;99.90;;;;;;6245856;23;20026;-81
2022/10/17 07:03:59;;;;;;;19.50;12.43;;;14.10;99.90;;;;;;6218338;23;20392;-81
2022/10/17 07:06:25;;;;;;;21.52;12.07;;;14.20;99.90;;;;;;6216628;23;20038;-81
2022/10/17 07:08:51;;;;;;;21.52;11.73;;;14.40;99.90;;;;;;6245719;23;20083;-81
2022/10/17 07:11:19;;;;;;;20.50;11.43;;;15.70;99.90;;;;;;6218006;23;20043;-83
2022/10/17 07:13:45;;;;;;;24.05;11.93;;;14.60;99.90;;;;;;6243964;23;20023;-81
2022/10/17 07:16:12;;;;;;;19.30;11.82;;;14.50;99.90;;;;;;6245076;23;20023;-81
2022/10/17 07:18:39;;;;;;;18.75;11.02;;;14.60;99.90;;;;;;6218199;23;20086;-81
2022/10/17 07:21:08;;;;;;;20.08;11.38;;;15.40;99.90;;;;;;6217125;23;20099;-81
2022/10/17 07:23:35;;;;;;;18.75;11.10;;;14.80;99.90;;;;;;6244783;23;20016;-81
2022/10/17 07:26:08;;;;;;;18.60;10.95;;;14.80;99.90;;;;;;6217434;23;20024;-82
2022/10/17 07:28:35;;;;;;;17.73;10.10;;;14.90;99.90;;;;;;6218001;23;20018;-81
2022/10/17 07:31:15;;;;;;;18.52;10.73;;;15.00;99.90;;;;;;6218114;23;20023;-82
2022/10/17 07:33:42;;;;;;;18.95;11.00;;;15.30;99.90;;;;;;6244198;23;20023;-82
2022/10/17 07:36:07;;;;;;;15.80;9.80;;;15.30;99.90;;;;;;6217901;23;20015;-81
2022/10/17 07:38:34;;;;;;;16.45;9.77;;;15.30;99.90;;;;;;6218006;23;20019;-83
2022/10/17 07:41:02;;;;;;;16.95;10.00;;;15.70;99.90;;;;;;6217693;23;20062;-84
2022/10/17 07:43:28;;;;;;;16.48;9.32;;;15.50;99.90;;;;;;6244803;23;20012;-85
2022/10/17 07:45:54;;;;;;;18.00;9.35;;;16.40;99.90;;;;;;6245223;23;20425;-82
2022/10/17 07:48:22;;;;;;;22.40;10.25;;;16.60;99.90;;;;;;6243844;23;20012;-82
2022/10/17 07:50:47;;;;;;;16.85;8.73;;;15.90;99.90;;;;;;6218055;23;20345;-82
2022/10/17 07:53:13;;;;;;;15.18;9.00;;;16.10;99.90;;;;;;6244607;23;20022;-82
2022/10/17 07:55:40;;;;;;;15.10;8.38;;;16.10;99.90;;;;;;6216948;23;20383;-82
2022/10/17 07:58:07;;;;;;;15.05;8.70;;;16.10;99.90;;;;;;6217605;23;20012;-82
2022/10/17 08:00:33;;;;;;;14.52;7.88;;;16.20;99.90;;;;;;6244900;23;20012;-82
2022/10/17 08:02:58;;;;;;;13.88;8.73;;;16.20;99.90;;;;;;6244058;23;20333;-82
2022/10/17 08:05:24;;;;;;;16.50;8.55;;;16.20;99.90;;;;;;6217538;23;20081;-82
2022/10/17 08:07:49;;;;;;;14.30;8.48;;;16.20;99.90;;;;;;6244958;23;20079;-82
2022/10/17 08:10:15;;;;;;;19.02;8.57;;;16.20;99.90;;;;;;6243810;23;20087;-82
2022/10/17 08:12:41;;;;;;;16.73;8.35;;;16.60;99.90;;;;;;6244965;23;20325;-82
2022/10/17 08:15:08;;;;;;;14.50;8.07;;;16.20;99.90;;;;;;6216547;23;20058;-82
2022/10/17 08:17:35;;;;;;;16.38;8.15;;;16.20;99.90;;;;;;6217493;23;20020;-82
2022/10/17 08:20:01;;;;;;;15.63;8.15;;;16.40;99.90;;;;;;6218977;23;20038;-82
2022/10/17 08:22:27;;;;;;;19.63;8.20;;;16.20;99.90;;;;;;6218663;23;20348;-82
2022/10/17 08:24:52;;;;;;;18.55;8.65;;;16.60;99.90;;;;;;6219661;23;20023;-82
2022/10/17 08:27:23;;;;;;;14.57;8.45;;;16.40;99.90;;;;;;6219445;23;20018;-82
2022/10/17 08:29:51;;;;;;;13.35;8.10;;;16.50;99.90;;;;;;6218390;23;20020;-82
2022/10/17 08:32:19;;;;;;;16.67;7.60;;;16.50;99.90;;;;;;6218688;23;20012;-82
2022/10/17 08:34:44;;;;;;;16.08;7.68;;;16.60;99.90;;;;;;6246827;23;20012;-82
2022/10/17 08:37:12;;;;;;;16.23;7.40;;;16.80;99.90;;;;;;6218259;23;20069;-82
2022/10/17 08:39:40;;;;;;;15.20;7.43;;;17.20;99.90;;;;;;6219720;23;20008;-82
2022/10/17 08:42:30;;;;;;;13.60;6.90;;;17.50;99.90;;;;;;6219837;23;20020;-82
2022/10/17 08:45:23;;;;;;;14.55;6.75;;;16.90;99.90;;;;;;6218612;23;20017;-82
2022/10/17 08:47:53;;;;;;;13.60;6.75;;;16.90;99.90;;;;;;6219572;23;20012;-82
2022/10/17 08:50:46;;;;;;;13.75;7.13;;;17.00;99.90;;;;;;6245013;23;20019;-82
2022/10/17 08:53:35;;;;;;;13.07;6.60;;;17.00;99.90;;;;;;6218644;23;20022;-82
2022/10/17 08:56:12;;;;;;;13.32;6.60;;;17.10;99.90;;;;;;6219194;23;20016;-82
2022/10/17 08:58:38;;;;;;;12.18;6.32;;;17.10;99.90;;;;;;6218738;23;20012;-82
2022/10/17 09:01:13;;;;;;;13.25;6.25;;;17.40;99.90;;;;;;6246783;23;20047;-82
2022/10/17 09:03:46;;;;;;;13.88;6.63;;;17.30;99.90;;;;;;6246038;23;20476;-82
2022/10/17 09:06:24;;;;;;;14.75;7.07;;;17.30;99.90;;;;;;6218101;23;20070;-82
2022/10/17 09:09:06;;;;;;;13.50;7.15;;;17.40;99.90;;;;;;6246134;23;20333;-82
2022/10/17 09:11:38;;;;;;;14.63;6.60;;;17.50;99.90;;;;;;6217640;23;20082;-82
2022/10/17 09:14:22;;;;;;;13.38;6.55;;;17.40;99.90;;;;;;6245479;23;20490;-82
2022/10/17 09:17:17;;;;;;;13.55;6.28;;;18.00;99.90;;;;;;6245739;23;20067;-82
2022/10/17 09:20:13;;;;;;;12.45;6.88;;;17.50;99.90;;;;;;6211571;23;20047;-82
2022/10/17 09:23:17;;;;;;;12.45;6.22;;;17.50;99.90;;;;;;6218716;23;20134;-82
2022/10/17 09:25:49;;;;;;;12.73;6.43;;;17.50;99.90;;;;;;6218328;23;20020;-82
2022/10/17 09:28:20;;;;;;;14.85;6.93;;;17.80;99.90;;;;;;6219598;23;20051;-84
2022/10/17 09:30:54;;;;;;;13.85;7.07;;;17.60;99.90;;;;;;6248572;23;20058;-82
2022/10/17 09:36:37;;;;;;;13.75;6.63;;;17.70;99.90;;;;;;6240293;22;20024;-83
2022/10/17 09:39:22;;;;;;;11.63;6.32;;;17.80;99.90;;;;;;6245713;23;20020;-84
2022/10/17 09:42:18;;;;;;;13.50;6.60;;;17.90;99.90;;;;;;6218387;23;20084;-83
2022/10/17 09:45:23;;;;;;;13.25;6.63;;;17.80;99.90;;;;;;6241446;23;20016;-84
2022/10/17 09:48:09;;;;;;;12.95;6.45;;;17.80;99.90;;;;;;6205837;23;20026;-84
2022/10/17 09:50:35;;;;;;;12.73;6.22;;;17.90;99.90;;;;;;6218869;23;20027;-84
2022/10/17 09:53:31;;;;;;;12.70;6.22;;;19.10;99.90;;;;;;6218667;23;20057;-83
2022/10/17 09:56:00;;;;;;;13.07;6.35;;;18.00;99.90;;;;;;6218847;23;20023;-83
2022/10/17 09:58:52;;;;;;;12.93;6.75;;;18.60;99.90;;;;;;6218196;23;20054;-83
2022/10/17 10:05:15;;;;;;;13.90;6.70;;;17.80;99.90;;;;;;6245686;23;20329;-83
2022/10/17 10:07:43;;;;;;;11.68;6.30;;;19.20;99.90;;;;;;6217815;23;20533;-84
2022/10/17 10:10:27;;;;;;;13.60;6.78;;;17.80;99.90;;;;;;6245408;23;20020;-83
2022/10/17 10:13:05;;;;;;;16.17;7.60;;;18.60;99.90;;;;;;6245344;23;20016;-83
2022/10/17 10:15:34;;;;;;;15.18;7.45;;;17.50;99.90;;;;;;6217527;23;20506;-83
2022/10/17 10:17:59;;;;;;;13.40;7.63;;;17.40;99.90;;;;;;6218739;23;20526;-83
2022/10/17 10:20:36;;;;;;;22.45;9.55;;;17.30;99.90;;;;;;6245143;23;20035;-83
2022/10/17 10:23:17;;;;;;;13.60;7.72;;;17.20;99.90;;;;;;6217579;23;20063;-83
2022/10/17 10:25:57;;;;;;;15.32;7.85;;;17.10;99.90;;;;;;6245878;23;20500;-83
2022/10/17 10:28:26;;;;;;;15.50;7.60;;;17.00;99.90;;;;;;6245060;23;20020;-83
2022/10/17 10:30:54;;;;;;;14.52;7.95;;;17.20;99.90;;;;;;6217168;23;20471;-83
2022/10/17 10:33:26;;;;;;;17.92;8.38;;;17.20;99.90;;;;;;6245691;23;20016;-83
2022/10/17 10:36:04;;;;;;;14.57;8.48;;;17.40;99.90;;;;;;6217396;23;20097;-82
2022/10/17 10:38:32;;;;;;;16.23;9.57;;;16.70;99.90;;;;;;6244999;23;20443;-82
2022/10/17 10:41:02;;;;;;;16.60;10.10;;;16.70;99.90;;;;;;6217988;23;20015;-82
2022/10/17 10:43:36;;;;;;;46.30;32.33;;;16.60;99.90;;;;;;6243364;23;20460;-82
2022/10/17 10:46:14;;;;;;;17.73;9.60;;;16.60;99.90;;;;;;6244438;23;20502;-83
2022/10/17 10:48:57;;;;;;;19.98;10.93;;;16.60;99.90;;;;;;6218651;23;20082;-82
2022/10/17 10:51:46;;;;;;;17.75;10.43;;;16.60;99.90;;;;;;6212272;23;20008;-83
2022/10/17 10:54:33;;;;;;;20.30;12.25;;;16.80;99.90;;;;;;6245585;23;20018;-83
2022/10/17 10:57:02;;;;;;;20.80;11.98;;;16.40;99.90;;;;;;6217584;23;20020;-83
2022/10/17 10:59:41;;;;;;;16.83;9.80;;;17.30;99.90;;;;;;6217899;23;20016;-82
2022/10/17 11:02:34;;;;;;;18.30;10.80;;;16.30;99.90;;;;;;6218407;23;20475;-83
2022/10/17 11:05:23;;;;;;;18.75;10.18;;;16.30;99.90;;;;;;6218170;23;20012;-84
2022/10/17 11:08:05;;;;;;;17.27;9.88;;;16.30;99.90;;;;;;6218749;23;20016;-81
2022/10/17 11:10:40;;;;;;;19.42;10.38;;;16.30;99.90;;;;;;6245457;23;20065;-81
2022/10/17 11:13:23;;;;;;;17.27;10.20;;;16.30;99.90;;;;;;6243936;23;20440;-81
2022/10/17 11:16:03;;;;;;;21.58;13.35;;;16.30;99.90;;;;;;6218654;23;20027;-81
2022/10/17 11:18:34;;;;;;;23.35;12.98;;;16.40;99.90;;;;;;6244502;23;20016;-81
2022/10/17 11:21:09;;;;;;;21.08;12.90;;;16.40;99.90;;;;;;6218251;23;20020;-81
2022/10/17 11:23:46;;;;;;;19.17;11.25;;;16.30;99.90;;;;;;6218464;23;20022;-81
2022/10/17 11:26:25;;;;;;;20.33;12.18;;;16.40;99.90;;;;;;6216972;23;20091;-81
2022/10/17 11:28:56;;;;;;;18.50;10.70;;;16.50;99.90;;;;;;6218481;23;20087;-83
2022/10/17 11:31:25;;;;;;;26.13;16.85;;;16.50;99.90;;;;;;6245160;23;20069;-83
2022/10/17 11:34:03;;;;;;;22.67;15.20;;;16.50;99.90;;;;;;6217173;23;20339;-82
2022/10/17 11:36:33;;;;;;;26.92;19.05;;;16.40;99.90;;;;;;6218088;23;20047;-82
2022/10/17 11:39:17;;;;;;;19.73;12.43;;;16.70;99.90;;;;;;6217498;23;20013;-83
2022/10/17 11:41:47;;;;;;;17.92;11.73;;;16.50;99.90;;;;;;6218376;23;20056;-84
2022/10/17 11:44:30;;;;;;;19.42;11.70;;;16.40;99.90;;;;;;6217732;23;20119;-82
2022/10/17 11:47:10;;;;;;;21.63;13.52;;;16.50;99.90;;;;;;6217732;23;20102;-82
2022/10/17 11:49:40;;;;;;;16.98;9.73;;;16.40;99.90;;;;;;6245600;23;20065;-83
2022/10/17 11:52:45;;;;;;;23.77;16.15;;;16.40;99.90;;;;;;6217905;23;20391;-85
2022/10/17 11:55:21;;;;;;;19.00;11.48;;;16.50;99.90;;;;;;6245382;23;20434;-83
2022/10/17 11:58:24;;;;;;;15.90;8.82;;;16.50;99.90;;;;;;6221172;23;20091;-82
2022/10/17 12:00:55;;;;;;;13.95;8.05;;;16.50;99.90;;;;;;6219355;23;20032;-83
2022/10/17 12:03:47;;;;;;;19.60;9.52;;;16.40;99.90;;;;;;6247276;23;20020;-83
2022/10/17 12:06:19;;;;;;;15.10;8.18;;;16.40;99.90;;;;;;6219886;23;20016;-82
2022/10/17 12:08:56;;;;;;;15.93;10.85;;;16.40;99.90;;;;;;6218935;23;20091;-83
2022/10/17 12:11:41;;;;;;;18.95;11.35;;;17.00;99.90;;;;;;6219947;23;20024;-81
2022/10/17 12:14:28;;;;;;;17.60;11.57;;;16.40;99.90;;;;;;6219451;23;20008;-83
2022/10/17 12:16:54;;;;;;;15.40;9.13;;;16.40;99.90;;;;;;6247491;23;20093;-83
2022/10/17 12:19:23;;;;;;;15.27;9.80;;;17.30;99.90;;;;;;6219830;23;20472;-83
2022/10/17 12:22:19;;;;;;;15.98;8.57;;;16.30;99.90;;;;;;6219022;23;20448;-84
2022/10/17 12:24:53;;;;;;;15.13;8.60;;;16.30;99.90;;;;;;6215431;23;20016;-83
2022/10/17 12:27:33;;;;;;;14.25;7.40;;;16.30;99.90;;;;;;6220019;23;20019;-85
2022/10/17 12:30:21;;;;;;;13.52;7.63;;;16.30;99.90;;;;;;6246430;23;20107;-85
2022/10/17 12:33:21;;;;;;;14.18;7.45;;;17.20;99.90;;;;;;6220196;23;20016;-85
2022/10/17 12:35:51;;;;;;;14.55;7.10;;;16.30;99.90;;;;;;6219091;23;20012;-86
2022/10/17 12:38:17;;;;;;;15.15;7.25;;;17.10;99.90;;;;;;6246850;23;20087;-85
2022/10/17 12:40:42;;;;;;;14.32;7.40;;;16.80;99.90;;;;;;6247179;23;20043;-84
2022/10/17 12:43:14;;;;;;;14.18;7.22;;;16.40;99.90;;;;;;6218629;23;20050;-83
2022/10/17 12:45:47;;;;;;;13.30;6.82;;;17.10;99.90;;;;;;6246644;23;20044;-82
2022/10/17 12:48:32;;;;;;;13.43;7.28;;;16.50;99.90;;;;;;6219081;23;20016;-82
2022/10/17 12:51:03;;;;;;;11.80;6.47;;;16.50;99.90;;;;;;6218799;23;20027;-82
2022/10/17 12:53:59;;;;;;;10.95;5.90;;;16.50;99.90;;;;;;6219610;23;20091;-82
2022/10/17 12:56:46;;;;;;;12.48;6.03;;;16.60;99.90;;;;;;6245743;23;20444;-82
2022/10/17 12:59:21;;;;;;;11.57;6.00;;;16.70;99.90;;;;;;6219397;23;20024;-81
2022/10/17 13:01:51;;;;;;;13.65;6.30;;;16.60;99.90;;;;;;6219827;23;20020;-81
2022/10/17 13:04:18;;;;;;;13.05;6.25;;;16.70;99.90;;;;;;6245489;23;20471;-81
2022/10/17 13:06:52;;;;;;;11.70;6.20;;;16.70;99.90;;;;;;6245834;23;20519;-81
2022/10/17 13:09:24;;;;;;;11.55;6.95;;;16.80;99.90;;;;;;6219160;23;20023;-81
2022/10/17 13:11:50;;;;;;;11.15;5.60;;;16.70;99.90;;;;;;6245985;23;20048;-81
2022/10/17 13:14:19;;;;;;;12.50;8.00;;;16.60;99.90;;;;;;6219283;23;20020;-81
2022/10/17 13:16:51;;;;;;;12.85;6.20;;;16.70;99.90;;;;;;6219412;23;20016;-82
2022/10/17 13:19:22;;;;;;;11.50;6.20;;;16.60;99.90;;;;;;6245460;23;20016;-82